Argyle, Iowa
Current Conditions -  °F | °C
As of 2:55 AM on Wednesday 26 Nov 2014 (Local Time) from KEOK Reporting Station
Scattered Clouds Scattered Clouds  
Wind Chill: -7°   Ceiling: Unl
Heat Index: -3°   Visibility: 10mi
Dew Point: -5°   Wind: 7mph
Humidity: 86%   Direction: 130°SE
Pressure: 30.05"   Gusts: NA
Location:  40.53°N, 91.57°W
Report Text: KEOK 260855Z AUTO 13006KT 10SM SCT110 M03/M05 A3005 RMK AO2
Loading
Personal Weather Stations






























Interactive Weather Map New forecast layout! Learn more

10-Day Weather Forecast

Advertisements
Track Severe Weather on mobile